sensor_id;sensor_type;location;lat;lon;timestamp;pressure;altitude;pressure_sealevel;temperature;humidity
27425;BME280;15244;49.088;11.886;2022-11-12T00:05:17;97433.16;;;9.96;56.84
27425;BME280;15244;49.088;11.886;2022-11-12T00:10:37;97423.72;;;9.93;56.67
27425;BME280;15244;49.088;11.886;2022-11-12T00:15:57;97418.16;;;9.90;56.91
27425;BME280;15244;49.088;11.886;2022-11-12T00:21:17;97415.19;;;9.83;56.73
27425;BME280;15244;49.088;11.886;2022-11-12T00:26:38;97410.63;;;9.74;56.67
27425;BME280;15244;49.088;11.886;2022-11-12T00:31:58;97411.50;;;9.66;56.69
27425;BME280;15244;49.088;11.886;2022-11-12T00:37:18;97409.00;;;9.61;56.33
27425;BME280;15244;49.088;11.886;2022-11-12T00:42:39;97414.34;;;9.58;56.52
27425;BME280;15244;49.088;11.886;2022-11-12T00:48:00;97413.88;;;9.55;56.76
27425;BME280;15244;49.088;11.886;2022-11-12T00:53:20;97414.66;;;9.56;56.67
27425;BME280;15244;49.088;11.886;2022-11-12T00:58:41;97412.28;;;9.54;56.78
27425;BME280;15244;49.088;11.886;2022-11-12T01:04:01;97412.28;;;9.54;56.50
27425;BME280;15244;49.088;11.886;2022-11-12T01:09:22;97413.41;;;9.53;56.77
27425;BME280;15244;49.088;11.886;2022-11-12T01:14:42;97400.13;;;9.52;56.70
27425;BME280;15244;49.088;11.886;2022-11-12T01:20:02;97404.97;;;9.46;56.36
27425;BME280;15244;49.088;11.886;2022-11-12T01:25:23;97396.22;;;9.41;56.55
27425;BME280;15244;49.088;11.886;2022-11-12T01:30:43;97391.47;;;9.38;56.50
27425;BME280;15244;49.088;11.886;2022-11-12T01:36:04;97382.72;;;9.32;56.35
27425;BME280;15244;49.088;11.886;2022-11-12T01:41:28;97377.81;;;9.25;56.26
27425;BME280;15244;49.088;11.886;2022-11-12T01:52:45;97368.47;;;9.14;55.89
27425;BME280;15244;49.088;11.886;2022-11-12T01:58:09;97363.09;;;9.05;55.56
27425;BME280;15244;49.088;11.886;2022-11-12T02:03:30;97368.06;;;9.03;56.07
27425;BME280;15244;49.088;11.886;2022-11-12T02:08:51;97371.56;;;9.04;55.76
27425;BME280;15244;49.088;11.886;2022-11-12T02:14:12;97357.66;;;9.05;55.83
27425;BME280;15244;49.088;11.886;2022-11-12T02:19:36;97363.41;;;9.04;55.72
27425;BME280;15244;49.088;11.886;2022-11-12T02:24:56;97358.78;;;9.04;55.94
27425;BME280;15244;49.088;11.886;2022-11-12T02:30:18;97357.84;;;9.00;55.62
27425;BME280;15244;49.088;11.886;2022-11-12T02:35:38;97360.09;;;8.98;55.55
27425;BME280;15244;49.088;11.886;2022-11-12T02:40:58;97356.91;;;8.96;55.79
27425;BME280;15244;49.088;11.886;2022-11-12T02:46:18;97354.88;;;8.93;55.69
27425;BME280;15244;49.088;11.886;2022-11-12T02:51:39;97349.78;;;8.92;55.56
27425;BME280;15244;49.088;11.886;2022-11-12T02:56:59;97359.03;;;8.90;55.44
27425;BME280;15244;49.088;11.886;2022-11-12T03:02:19;97361.78;;;8.90;55.59
27425;BME280;15244;49.088;11.886;2022-11-12T03:07:39;97368.34;;;8.89;55.53
27425;BME280;15244;49.088;11.886;2022-11-12T03:13:00;97370.72;;;8.91;55.35
27425;BME280;15244;49.088;11.886;2022-11-12T03:18:20;97366.88;;;8.92;56.14
27425;BME280;15244;49.088;11.886;2022-11-12T03:23:40;97367.69;;;8.93;55.92
27425;BME280;15244;49.088;11.886;2022-11-12T03:29:01;97362.91;;;8.89;55.97
27425;BME280;15244;49.088;11.886;2022-11-12T03:34:21;97373.63;;;8.86;56.07
27425;BME280;15244;49.088;11.886;2022-11-12T03:39:42;97374.66;;;8.81;55.93
27425;BME280;15244;49.088;11.886;2022-11-12T03:45:02;97371.31;;;8.76;56.14
27425;BME280;15244;49.088;11.886;2022-11-12T03:50:26;97370.06;;;8.73;56.05
27425;BME280;15244;49.088;11.886;2022-11-12T03:55:46;97369.00;;;8.65;55.98
27425;BME280;15244;49.088;11.886;2022-11-12T04:01:07;97369.19;;;8.60;55.93
27425;BME280;15244;49.088;11.886;2022-11-12T04:06:27;97370.31;;;8.59;55.71
27425;BME280;15244;49.088;11.886;2022-11-12T04:12:06;97366.81;;;8.59;55.47
27425;BME280;15244;49.088;11.886;2022-11-12T04:17:44;97359.44;;;8.59;55.66
27425;BME280;15244;49.088;11.886;2022-11-12T04:23:23;97361.38;;;8.59;55.29
27425;BME280;15244;49.088;11.886;2022-11-12T04:28:43;97357.03;;;8.58;55.33
27425;BME280;15244;49.088;11.886;2022-11-12T04:34:23;97355.47;;;8.57;54.89
27425;BME280;15244;49.088;11.886;2022-11-12T04:39:50;97354.19;;;8.54;54.99
27425;BME280;15244;49.088;11.886;2022-11-12T04:45:10;97357.59;;;8.51;54.50
27425;BME280;15244;49.088;11.886;2022-11-12T04:50:31;97361.09;;;8.52;54.98
27425;BME280;15244;49.088;11.886;2022-11-12T04:55:53;97360.94;;;8.48;54.74
27425;BME280;15244;49.088;11.886;2022-11-12T05:01:13;97354.72;;;8.48;54.54
27425;BME280;15244;49.088;11.886;2022-11-12T05:06:33;97351.88;;;8.44;55.03
27425;BME280;15244;49.088;11.886;2022-11-12T05:12:12;97351.72;;;8.40;54.60
27425;BME280;15244;49.088;11.886;2022-11-12T05:17:32;97355.88;;;8.38;54.69
27425;BME280;15244;49.088;11.886;2022-11-12T05:22:52;97359.25;;;8.35;54.70
27425;BME280;15244;49.088;11.886;2022-11-12T05:28:25;97367.75;;;8.33;54.55
27425;BME280;15244;49.088;11.886;2022-11-12T05:33:46;97362.16;;;8.30;54.55
27425;BME280;15244;49.088;11.886;2022-11-12T05:39:06;97357.38;;;8.27;54.48
27425;BME280;15244;49.088;11.886;2022-11-12T05:44:26;97359.16;;;8.22;54.43
27425;BME280;15244;49.088;11.886;2022-11-12T05:49:46;97355.81;;;8.17;53.69
27425;BME280;15244;49.088;11.886;2022-11-12T05:55:07;97357.16;;;8.11;53.42
27425;BME280;15244;49.088;11.886;2022-11-12T06:00:27;97370.91;;;8.06;53.52
27425;BME280;15244;49.088;11.886;2022-11-12T06:05:47;97359.09;;;8.01;53.55
27425;BME280;15244;49.088;11.886;2022-11-12T06:11:07;97366.28;;;7.97;53.33
27425;BME280;15244;49.088;11.886;2022-11-12T06:16:28;97367.31;;;7.93;53.07
27425;BME280;15244;49.088;11.886;2022-11-12T06:21:49;97371.78;;;7.89;52.81
27425;BME280;15244;49.088;11.886;2022-11-12T06:27:09;97379.31;;;7.83;53.27
27425;BME280;15244;49.088;11.886;2022-11-12T06:32:29;97378.84;;;7.81;52.88
27425;BME280;15244;49.088;11.886;2022-11-12T06:37:50;97384.91;;;7.78;52.99
27425;BME280;15244;49.088;11.886;2022-11-12T06:43:10;97385.56;;;7.75;52.97
27425;BME280;15244;49.088;11.886;2022-11-12T06:48:30;97385.09;;;7.73;53.25
27425;BME280;15244;49.088;11.886;2022-11-12T06:53:51;97386.69;;;7.74;53.10
27425;BME280;15244;49.088;11.886;2022-11-12T06:59:11;97382.50;;;7.76;53.40
27425;BME280;15244;49.088;11.886;2022-11-12T07:04:34;97388.25;;;7.84;53.83
27425;BME280;15244;49.088;11.886;2022-11-12T07:09:54;97384.22;;;7.90;53.72
27425;BME280;15244;49.088;11.886;2022-11-12T07:15:14;97381.81;;;7.97;54.05
27425;BME280;15244;49.088;11.886;2022-11-12T07:20:34;97386.75;;;8.03;54.15
27425;BME280;15244;49.088;11.886;2022-11-12T07:31:22;97394.22;;;8.15;54.30
27425;BME280;15244;49.088;11.886;2022-11-12T07:36:45;97387.44;;;8.21;54.21
27425;BME280;15244;49.088;11.886;2022-11-12T07:42:07;97394.75;;;8.30;54.45
27425;BME280;15244;49.088;11.886;2022-11-12T07:47:27;97396.63;;;8.38;54.27
27425;BME280;15244;49.088;11.886;2022-11-12T07:52:47;97395.00;;;8.45;54.65
27425;BME280;15244;49.088;11.886;2022-11-12T07:58:09;97400.41;;;8.54;54.51
27425;BME280;15244;49.088;11.886;2022-11-12T08:03:29;97387.56;;;8.63;54.67
27425;BME280;15244;49.088;11.886;2022-11-12T08:08:51;97392.63;;;8.74;55.15
27425;BME280;15244;49.088;11.886;2022-11-12T08:14:12;97405.47;;;8.85;55.38
27425;BME280;15244;49.088;11.886;2022-11-12T08:19:32;97399.19;;;8.94;55.27
27425;BME280;15244;49.088;11.886;2022-11-12T08:24:52;97398.34;;;9.02;55.99
27425;BME280;15244;49.088;11.886;2022-11-12T08:30:14;97392.34;;;9.08;55.62
27425;BME280;15244;49.088;11.886;2022-11-12T08:35:36;97388.31;;;9.15;55.55
27425;BME280;15244;49.088;11.886;2022-11-12T08:41:01;97399.47;;;9.22;55.65
27425;BME280;15244;49.088;11.886;2022-11-12T08:46:21;97396.66;;;9.30;56.15
27425;BME280;15244;49.088;11.886;2022-11-12T08:51:41;97400.88;;;9.40;55.94
27425;BME280;15244;49.088;11.886;2022-11-12T08:57:06;97397.75;;;9.50;55.92
27425;BME280;15244;49.088;11.886;2022-11-12T09:02:26;97409.34;;;9.60;55.93
27425;BME280;15244;49.088;11.886;2022-11-12T09:07:46;97413.91;;;9.68;55.91
27425;BME280;15244;49.088;11.886;2022-11-12T09:13:11;97416.88;;;9.75;56.31
27425;BME280;15244;49.088;11.886;2022-11-12T09:18:32;97420.97;;;9.81;56.06
27425;BME280;15244;49.088;11.886;2022-11-12T09:23:52;97423.16;;;9.88;56.40
27425;BME280;15244;49.088;11.886;2022-11-12T09:29:14;97415.56;;;9.93;56.15
27425;BME280;15244;49.088;11.886;2022-11-12T09:34:34;97421.25;;;10.01;56.50
27425;BME280;15244;49.088;11.886;2022-11-12T09:39:54;97417.16;;;10.07;56.00
27425;BME280;15244;49.088;11.886;2022-11-12T09:45:24;97417.06;;;10.15;56.50
27425;BME280;15244;49.088;11.886;2022-11-12T09:50:55;97419.34;;;10.26;56.80
27425;BME280;15244;49.088;11.886;2022-11-12T09:56:21;97405.75;;;10.38;56.54
27425;BME280;15244;49.088;11.886;2022-11-12T20:18:04;97091.81;;;5.63;69.00
27425;BME280;15244;49.088;11.886;2022-11-12T20:23:25;97088.38;;;6.54;68.31
27425;BME280;15244;49.088;11.886;2022-11-12T20:28:46;97075.84;;;7.17;67.38
27425;BME280;15244;49.088;11.886;2022-11-12T20:34:07;97080.31;;;7.64;66.22
27425;BME280;15244;49.088;11.886;2022-11-12T20:39:27;97070.63;;;7.96;65.09
27425;BME280;15244;49.088;11.886;2022-11-12T20:44:48;97066.06;;;8.21;64.03
27425;BME280;15244;49.088;11.886;2022-11-12T20:50:08;97054.69;;;8.40;63.57
27425;BME280;15244;49.088;11.886;2022-11-12T20:55:29;97049.75;;;8.54;63.08
27425;BME280;15244;49.088;11.886;2022-11-12T21:00:51;97047.75;;;8.63;62.29
27425;BME280;15244;49.088;11.886;2022-11-12T21:06:13;97039.44;;;8.60;61.95
27425;BME280;15244;49.088;11.886;2022-11-12T21:11:34;97053.03;;;8.60;61.21
27425;BME280;15244;49.088;11.886;2022-11-12T21:16:54;97054.75;;;8.64;61.02
27425;BME280;15244;49.088;11.886;2022-11-12T21:22:15;97055.31;;;8.70;61.20
27425;BME280;15244;49.088;11.886;2022-11-12T21:27:37;97044.13;;;8.72;60.83
27425;BME280;15244;49.088;11.886;2022-11-12T21:32:57;97041.41;;;8.72;60.62
27425;BME280;15244;49.088;11.886;2022-11-12T21:38:18;97035.28;;;8.75;60.76
27425;BME280;15244;49.088;11.886;2022-11-12T21:43:40;97033.00;;;8.77;60.31
27425;BME280;15244;49.088;11.886;2022-11-12T21:49:02;97034.03;;;8.84;60.57
27425;BME280;15244;49.088;11.886;2022-11-12T21:54:23;97029.47;;;8.88;60.39
27425;BME280;15244;49.088;11.886;2022-11-12T21:59:43;97022.69;;;8.95;60.70
27425;BME280;15244;49.088;11.886;2022-11-12T22:05:04;97023.59;;;8.99;60.58
27425;BME280;15244;49.088;11.886;2022-11-12T22:10:24;97010.44;;;9.01;60.31
27425;BME280;15244;49.088;11.886;2022-11-12T22:15:45;97007.25;;;8.99;60.28
27425;BME280;15244;49.088;11.886;2022-11-12T22:21:08;97017.59;;;8.93;59.82
27425;BME280;15244;49.088;11.886;2022-11-12T22:26:29;97005.81;;;8.89;59.76
27425;BME280;15244;49.088;11.886;2022-11-12T22:31:50;97007.28;;;8.86;59.58
27425;BME280;15244;49.088;11.886;2022-11-12T22:37:11;97017.50;;;8.89;59.84
27425;BME280;15244;49.088;11.886;2022-11-12T22:42:31;97013.28;;;8.92;59.72
27425;BME280;15244;49.088;11.886;2022-11-12T22:47:51;96992.00;;;8.94;59.67
27425;BME280;15244;49.088;11.886;2022-11-12T22:53:13;96984.63;;;8.95;59.86
27425;BME280;15244;49.088;11.886;2022-11-12T22:58:34;96983.47;;;8.96;59.38
27425;BME280;15244;49.088;11.886;2022-11-12T23:03:57;96974.97;;;8.97;59.58
27425;BME280;15244;49.088;11.886;2022-11-12T23:09:17;96976.91;;;8.97;59.25
27425;BME280;15244;49.088;11.886;2022-11-12T23:14:37;96983.00;;;8.94;58.81
27425;BME280;15244;49.088;11.886;2022-11-12T23:19:58;96977.94;;;8.92;59.10
27425;BME280;15244;49.088;11.886;2022-11-12T23:25:18;96987.22;;;8.91;59.03
27425;BME280;15244;49.088;11.886;2022-11-12T23:30:39;96979.41;;;8.89;58.72
27425;BME280;15244;49.088;11.886;2022-11-12T23:36:06;96963.78;;;8.86;58.86
27425;BME280;15244;49.088;11.886;2022-11-12T23:41:27;96961.31;;;8.81;58.26
27425;BME280;15244;49.088;11.886;2022-11-12T23:46:47;96947.81;;;8.73;58.13
27425;BME280;15244;49.088;11.886;2022-11-12T23:52:08;96943.97;;;8.61;57.59
27425;BME280;15244;49.088;11.886;2022-11-12T23:57:28;96931.41;;;8.57;57.41
